Time;durP1;ratioP1;P1;durP2;ratioP2;P2;SDS_P1;SDS_P2;PMS_P1;PMS_P2;Temp;Humidity;BMP_temperature;BMP_pressure;BME280_temperature;BME280_humidity;BME280_pressure;Samples;Min_cycle;Max_cycle;Signal;HPM_P1;HPM_P2
2022/01/01 17:12:14;;;;;;;16.33;3.97;;;;;;;;;;5066576;28;20875;-64
2022/01/01 17:14:40;;;;;;;9.75;2.72;;;;;;;;;;5067123;28;20516;-65
2022/01/01 17:17:24;;;;;;;12.43;2.65;;;;;;;;;;5067191;28;20025;-64
2022/01/01 17:19:54;;;;;;;15.65;3.35;;;;;;;;;;5066784;28;20519;-63
2022/01/01 17:22:38;;;;;;;12.88;3.65;;;;;;;;;;5066817;28;20033;-66
2022/01/01 17:25:09;;;;;;;19.60;2.70;;;;;;;;;;5066495;28;20021;-64
2022/01/01 17:27:48;;;;;;;16.30;4.28;;;;;;;;;;5066630;28;20046;-63
2022/01/01 17:30:15;;;;;;;14.18;2.95;;;;;;;;;;5066739;28;20040;-63
2022/01/01 17:32:45;;;;;;;20.98;3.90;;;;;;;;;;5066734;28;20020;-63
2022/01/01 17:37:49;;;;;;;16.42;3.33;;;;;;;;;;5065400;28;20082;-64
2022/01/01 17:40:18;;;;;;;12.75;3.17;;;;;;;;;;5063046;28;20115;-64
2022/01/01 17:42:44;;;;;;;20.40;4.35;;;;;;;;;;5065042;28;20058;-64
2022/01/01 17:45:10;;;;;;;13.35;3.47;;;;;;;;;;5065716;28;20029;-64
2022/01/01 17:47:38;;;;;;;18.90;3.83;;;;;;;;;;5066438;28;20068;-64
2022/01/01 17:50:17;;;;;;;19.30;4.00;;;;;;;;;;5066508;28;20033;-64
2022/01/01 17:52:43;;;;;;;15.27;3.42;;;;;;;;;;5066100;28;20044;-64
2022/01/01 17:55:10;;;;;;;23.33;4.95;;;;;;;;;;5065902;28;20379;-64
2022/01/01 17:57:39;;;;;;;18.55;4.82;;;;;;;;;;5065803;28;20063;-64
2022/01/01 18:00:06;;;;;;;15.57;3.50;;;;;;;;;;5066029;28;20029;-63
2022/01/01 18:02:32;;;;;;;23.00;5.72;;;;;;;;;;5066130;28;20028;-64
2022/01/01 18:04:58;;;;;;;16.65;4.60;;;;;;;;;;5064849;28;20553;-63
2022/01/01 18:07:34;;;;;;;14.73;4.68;;;;;;;;;;5065786;28;20031;-63
2022/01/01 18:10:03;;;;;;;19.27;4.70;;;;;;;;;;5064852;28;20028;-63
2022/01/01 18:12:46;;;;;;;15.52;4.30;;;;;;;;;;5065379;28;20031;-63
2022/01/01 18:15:13;;;;;;;17.67;5.15;;;;;;;;;;5065759;28;20048;-65
2022/01/01 18:17:40;;;;;;;20.42;6.35;;;;;;;;;;5065656;28;20028;-64
2022/01/01 18:20:07;;;;;;;25.20;5.88;;;;;;;;;;5064201;28;20399;-62
2022/01/01 18:22:34;;;;;;;22.25;6.10;;;;;;;;;;5058315;28;20518;-63
2022/01/01 18:25:06;;;;;;;26.73;7.13;;;;;;;;;;5051283;28;20033;-73
2022/01/01 18:27:33;;;;;;;23.45;5.85;;;;;;;;;;5052836;28;20033;-74
2022/01/01 18:30:00;;;;;;;26.55;9.10;;;;;;;;;;5051236;28;20388;-75
2022/01/01 18:32:26;;;;;;;26.38;9.38;;;;;;;;;;5050784;28;20048;-74
2022/01/01 18:34:52;;;;;;;36.50;9.10;;;;;;;;;;5052083;28;20440;-73
2022/01/01 18:37:19;;;;;;;22.85;6.60;;;;;;;;;;5051313;28;20021;-74
2022/01/01 18:39:46;;;;;;;27.10;7.90;;;;;;;;;;5052069;28;20056;-74
2022/01/01 18:42:12;;;;;;;32.20;8.18;;;;;;;;;;5051779;28;20476;-73
2022/01/01 18:44:39;;;;;;;21.88;8.02;;;;;;;;;;5051963;28;20048;-74
2022/01/01 18:47:05;;;;;;;24.92;7.53;;;;;;;;;;5051565;28;20078;-74
2022/01/01 18:49:31;;;;;;;29.83;9.65;;;;;;;;;;5051793;28;20068;-74
2022/01/01 18:51:58;;;;;;;23.45;5.40;;;;;;;;;;5050677;28;20566;-74
2022/01/01 18:54:26;;;;;;;18.23;6.13;;;;;;;;;;5051586;28;20086;-74
2022/01/01 18:57:11;;;;;;;22.48;8.88;;;;;;;;;;5051540;28;20023;-74
2022/01/01 18:59:50;;;;;;;30.65;13.63;;;;;;;;;;5032124;28;20021;-70
2022/01/01 19:02:16;;;;;;;22.23;6.22;;;;;;;;;;5050818;28;20021;-71
2022/01/01 19:04:47;;;;;;;18.15;4.20;;;;;;;;;;5050679;28;20480;-71
2022/01/01 19:07:14;;;;;;;18.30;4.00;;;;;;;;;;5050551;28;20141;-71
2022/01/01 19:09:41;;;;;;;15.75;4.72;;;;;;;;;;5049727;28;20025;-71
2022/01/01 19:12:22;;;;;;;21.08;4.93;;;;;;;;;;5050359;28;20057;-71
2022/01/01 19:14:51;;;;;;;22.33;4.20;;;;;;;;;;5049829;28;20044;-71
2022/01/01 19:17:17;;;;;;;18.30;4.00;;;;;;;;;;5048648;28;20036;-70
2022/01/01 19:19:43;;;;;;;20.00;4.20;;;;;;;;;;5050842;28;20025;-72
2022/01/01 19:22:09;;;;;;;14.77;4.35;;;;;;;;;;5049245;28;20335;-71
2022/01/01 19:24:36;;;;;;;23.13;7.20;;;;;;;;;;5049500;28;20052;-71
2022/01/01 19:27:02;;;;;;;21.45;6.35;;;;;;;;;;5050597;28;20032;-71
2022/01/01 19:29:28;;;;;;;19.50;6.32;;;;;;;;;;5048255;28;20037;-70
2022/01/01 19:31:55;;;;;;;19.27;5.13;;;;;;;;;;5050831;28;20422;-70
2022/01/01 19:34:25;;;;;;;15.45;4.13;;;;;;;;;;5048094;28;20021;-70
2022/01/01 19:36:55;;;;;;;23.00;3.85;;;;;;;;;;5049782;28;20021;-71
2022/01/01 19:39:21;;;;;;;18.92;3.78;;;;;;;;;;5049753;28;20115;-70
2022/01/01 19:41:52;;;;;;;21.45;5.32;;;;;;;;;;5050051;28;20025;-71
2022/01/01 19:44:24;;;;;;;13.48;4.38;;;;;;;;;;5049433;28;20416;-70
2022/01/01 19:46:50;;;;;;;15.77;4.80;;;;;;;;;;5048517;28;20399;-71
2022/01/01 19:49:17;;;;;;;20.65;5.00;;;;;;;;;;5049515;28;20033;-71
2022/01/01 19:51:43;;;;;;;17.45;4.65;;;;;;;;;;5050380;28;20108;-71
2022/01/01 19:54:09;;;;;;;12.85;4.63;;;;;;;;;;5050526;28;20036;-70
2022/01/01 19:56:36;;;;;;;14.18;4.85;;;;;;;;;;5050788;28;20111;-71
2022/01/01 19:59:03;;;;;;;18.02;4.45;;;;;;;;;;5050803;28;20025;-70
2022/01/01 20:01:30;;;;;;;17.88;4.82;;;;;;;;;;5050430;28;20053;-70
2022/01/01 20:03:57;;;;;;;20.65;4.10;;;;;;;;;;5057723;28;20034;-71
2022/01/01 20:06:23;;;;;;;22.23;5.20;;;;;;;;;;5054619;28;20033;-71
2022/01/01 20:08:49;;;;;;;15.48;3.58;;;;;;;;;;5041468;28;20116;-71
2022/01/01 20:11:15;;;;;;;15.55;4.20;;;;;;;;;;5038242;28;20171;-70
2022/01/01 20:13:42;;;;;;;18.70;3.47;;;;;;;;;;5048038;28;20044;-70
2022/01/01 20:16:08;;;;;;;18.25;3.72;;;;;;;;;;5049086;28;20423;-70
2022/01/01 20:18:34;;;;;;;19.83;4.00;;;;;;;;;;5048799;28;20472;-71
2022/01/01 20:21:00;;;;;;;20.75;4.05;;;;;;;;;;5050215;28;20404;-71
2022/01/01 20:23:26;;;;;;;15.18;4.10;;;;;;;;;;5049127;28;20484;-71
2022/01/01 20:25:52;;;;;;;20.75;3.28;;;;;;;;;;5049667;28;20480;-70
2022/01/01 20:28:19;;;;;;;25.38;4.90;;;;;;;;;;5049859;28;20036;-70
2022/01/01 20:30:45;;;;;;;25.50;4.97;;;;;;;;;;5050335;28;20503;-70
2022/01/01 20:33:11;;;;;;;21.88;4.03;;;;;;;;;;5049154;28;20487;-71
2022/01/01 20:35:37;;;;;;;14.25;2.72;;;;;;;;;;5049008;28;20408;-71
2022/01/01 20:38:03;;;;;;;16.15;3.08;;;;;;;;;;5048688;28;20021;-71
2022/01/01 20:40:29;;;;;;;18.60;3.13;;;;;;;;;;5047984;28;20460;-71
2022/01/01 20:42:56;;;;;;;16.45;3.17;;;;;;;;;;5048939;28;20111;-71
2022/01/01 20:45:22;;;;;;;14.98;3.17;;;;;;;;;;5047923;28;20044;-71
2022/01/01 20:47:48;;;;;;;11.93;2.63;;;;;;;;;;5041081;28;20033;-70
2022/01/01 20:50:14;;;;;;;13.07;2.42;;;;;;;;;;5045100;28;20033;-71
2022/01/01 20:52:40;;;;;;;20.52;2.90;;;;;;;;;;5048672;28;20013;-70
2022/01/01 20:55:07;;;;;;;20.02;3.83;;;;;;;;;;5047138;28;20021;-71
2022/01/01 20:57:33;;;;;;;17.20;3.70;;;;;;;;;;5048096;28;20059;-70
2022/01/01 20:59:59;;;;;;;14.73;3.22;;;;;;;;;;5048483;28;20701;-71
2022/01/01 21:02:26;;;;;;;15.68;3.40;;;;;;;;;;5048449;28;20416;-70
2022/01/01 21:04:52;;;;;;;16.10;4.03;;;;;;;;;;5048076;28;20021;-70
2022/01/01 21:07:25;;;;;;;15.95;4.18;;;;;;;;;;5030542;28;20017;-70
2022/01/01 21:09:52;;;;;;;22.75;3.15;;;;;;;;;;5047932;28;20032;-69
2022/01/01 21:12:18;;;;;;;16.50;3.63;;;;;;;;;;5048469;28;20025;-71
2022/01/01 21:14:44;;;;;;;24.67;3.67;;;;;;;;;;5047813;28;20025;-71
2022/01/01 21:17:10;;;;;;;22.50;4.50;;;;;;;;;;5047733;28;20051;-71
2022/01/01 21:19:37;;;;;;;28.48;4.72;;;;;;;;;;5047704;28;20032;-71
2022/01/01 21:22:03;;;;;;;20.13;3.97;;;;;;;;;;5041275;28;20064;-71
2022/01/01 21:24:29;;;;;;;25.77;5.32;;;;;;;;;;5043761;28;20060;-71
2022/01/01 21:26:55;;;;;;;21.50;4.70;;;;;;;;;;5041748;28;20025;-70
2022/01/01 21:29:21;;;;;;;23.00;5.05;;;;;;;;;;5025351;28;20110;-72
2022/01/01 21:31:48;;;;;;;31.08;9.18;;;;;;;;;;5021455;28;20503;-71
2022/01/01 21:34:14;;;;;;;16.70;4.28;;;;;;;;;;5022749;28;20029;-71
2022/01/01 21:36:41;;;;;;;25.38;5.28;;;;;;;;;;5027300;28;20104;-71
2022/01/01 21:39:07;;;;;;;24.60;3.33;;;;;;;;;;5024961;28;20025;-71
2022/01/01 21:41:33;;;;;;;20.60;3.97;;;;;;;;;;5027235;28;20569;-71
2022/01/01 21:43:59;;;;;;;26.08;6.07;;;;;;;;;;5025087;28;20060;-71
2022/01/01 21:46:25;;;;;;;27.23;4.78;;;;;;;;;;5027872;28;20119;-72
2022/01/01 21:48:52;;;;;;;29.58;5.75;;;;;;;;;;5025277;28;20021;-72
2022/01/01 21:51:18;;;;;;;24.42;4.68;;;;;;;;;;5028034;28;20044;-72
2022/01/01 21:53:45;;;;;;;20.25;4.57;;;;;;;;;;5026961;28;20508;-72
2022/01/01 21:56:11;;;;;;;24.55;4.35;;;;;;;;;;5027591;28;20082;-72
2022/01/01 21:58:37;;;;;;;25.27;3.75;;;;;;;;;;5028352;28;20368;-70
2022/01/01 22:01:03;;;;;;;23.40;4.45;;;;;;;;;;5033671;28;20435;-72
2022/01/01 22:03:29;;;;;;;23.27;5.03;;;;;;;;;;5032236;28;20103;-69
2022/01/01 22:05:56;;;;;;;29.00;3.92;;;;;;;;;;5033905;28;20387;-71
2022/01/01 22:08:22;;;;;;;29.48;5.80;;;;;;;;;;5029913;28;20036;-72
2022/01/01 22:10:48;;;;;;;19.23;4.95;;;;;;;;;;5031283;28;20041;-71
2022/01/01 22:13:14;;;;;;;26.73;4.15;;;;;;;;;;5030906;28;20369;-72
2022/01/01 22:15:41;;;;;;;30.30;4.90;;;;;;;;;;5029951;28;20061;-70
2022/01/01 22:18:07;;;;;;;30.15;4.82;;;;;;;;;;5029052;28;20116;-71
2022/01/01 22:20:33;;;;;;;24.63;4.47;;;;;;;;;;5030589;28;20025;-72
2022/01/01 22:22:59;;;;;;;23.38;4.00;;;;;;;;;;5031161;28;20226;-73
2022/01/01 22:25:25;;;;;;;26.45;4.03;;;;;;;;;;5030475;28;20064;-72
2022/01/01 22:27:51;;;;;;;24.70;4.05;;;;;;;;;;5030195;28;20029;-72
2022/01/01 22:30:17;;;;;;;26.17;4.68;;;;;;;;;;5030321;28;20035;-72
2022/01/01 22:32:43;;;;;;;25.25;3.25;;;;;;;;;;5042518;28;20505;-70
2022/01/01 22:35:10;;;;;;;18.48;4.15;;;;;;;;;;5051672;28;20443;-70
2022/01/01 22:37:36;;;;;;;24.63;3.92;;;;;;;;;;5051827;28;20021;-70
2022/01/01 22:40:02;;;;;;;21.83;4.13;;;;;;;;;;5051947;28;20412;-71
2022/01/01 22:42:28;;;;;;;28.92;4.45;;;;;;;;;;5050825;28;20029;-69
2022/01/01 22:44:54;;;;;;;30.85;4.82;;;;;;;;;;5062056;28;20103;-70
2022/01/01 22:47:20;;;;;;;28.73;4.35;;;;;;;;;;5049450;28;20029;-71
2022/01/01 22:49:47;;;;;;;16.80;2.95;;;;;;;;;;5050200;28;20147;-71
2022/01/01 22:52:13;;;;;;;35.22;4.28;;;;;;;;;;5049742;28;20025;-71
2022/01/01 22:54:39;;;;;;;25.05;4.15;;;;;;;;;;5051813;28;20029;-70
2022/01/01 22:57:05;;;;;;;23.02;3.83;;;;;;;;;;5050316;28;20099;-70
2022/01/01 22:59:31;;;;;;;19.42;3.47;;;;;;;;;;5051379;28;20380;-70
2022/01/01 23:01:58;;;;;;;30.90;4.10;;;;;;;;;;5051153;28;20108;-70
2022/01/01 23:04:24;;;;;;;22.05;3.63;;;;;;;;;;5058089;28;20029;-71
2022/01/01 23:06:50;;;;;;;25.80;3.25;;;;;;;;;;5051460;28;20437;-71
2022/01/01 23:09:17;;;;;;;27.75;3.92;;;;;;;;;;5050068;28;20079;-71
2022/01/01 23:11:43;;;;;;;17.90;4.07;;;;;;;;;;5050274;28;20397;-70
2022/01/01 23:14:09;;;;;;;24.55;3.35;;;;;;;;;;5049272;28;20029;-70
2022/01/01 23:16:42;;;;;;;27.10;3.72;;;;;;;;;;5051163;28;20013;-70
2022/01/01 23:19:08;;;;;;;20.35;2.92;;;;;;;;;;5050889;28;20028;-70
2022/01/01 23:21:35;;;;;;;16.27;3.60;;;;;;;;;;5050931;28;20025;-70
2022/01/01 23:24:08;;;;;;;16.52;3.55;;;;;;;;;;5050022;28;20116;-69
2022/01/01 23:26:36;;;;;;;22.65;3.60;;;;;;;;;;5050782;28;20523;-70
2022/01/01 23:29:05;;;;;;;26.48;4.47;;;;;;;;;;5050736;28;20040;-69
2022/01/01 23:31:32;;;;;;;20.23;3.13;;;;;;;;;;5050647;28;20025;-70
2022/01/01 23:34:05;;;;;;;31.27;3.30;;;;;;;;;;5048878;28;20320;-70
2022/01/01 23:36:31;;;;;;;37.67;4.18;;;;;;;;;;5050501;28;20108;-69
2022/01/01 23:38:57;;;;;;;19.90;3.25;;;;;;;;;;5050474;28;20083;-70
2022/01/01 23:41:23;;;;;;;23.38;4.63;;;;;;;;;;5049633;28;20267;-70
2022/01/01 23:43:49;;;;;;;23.52;3.40;;;;;;;;;;5053622;28;20039;-70
2022/01/01 23:46:15;;;;;;;23.88;3.92;;;;;;;;;;5051607;28;20554;-69
2022/01/01 23:48:41;;;;;;;24.42;3.25;;;;;;;;;;5055754;28;20360;-70
2022/01/01 23:51:08;;;;;;;23.23;3.20;;;;;;;;;;5050489;28;20426;-69
2022/01/01 23:53:34;;;;;;;22.15;4.05;;;;;;;;;;5050748;28;20025;-69
2022/01/01 23:56:03;;;;;;;21.92;3.30;;;;;;;;;;5047687;28;20055;-70
2022/01/01 23:58:44;;;;;;;17.55;3.22;;;;;;;;;;5029828;28;20034;-70
